createdAt,value
2022-11-30T00:01:26.604Z,80.68
2022-11-30T00:06:28.224Z,80.78
2022-11-30T00:11:29.960Z,80.51
2022-11-30T00:16:33.856Z,79.98
2022-11-30T00:21:35.650Z,80.65
2022-11-30T00:26:37.291Z,79.80
2022-11-30T00:31:38.980Z,80.34
2022-11-30T00:36:40.643Z,80.08
2022-11-30T00:41:42.389Z,79.54
2022-11-30T00:46:44.082Z,79.63
2022-11-30T00:51:45.760Z,79.95
2022-11-30T00:56:47.389Z,79.64
2022-11-30T01:01:49.068Z,79.25
2022-11-30T01:06:50.709Z,79.76
2022-11-30T01:11:52.330Z,79.30
2022-11-30T01:16:56.334Z,79.20
2022-11-30T01:21:58.252Z,79.60
2022-11-30T01:26:59.866Z,79.46
2022-11-30T01:32:01.469Z,79.99
2022-11-30T01:37:03.106Z,79.35
2022-11-30T01:42:05.098Z,79.82
2022-11-30T01:47:10.586Z,79.64
2022-11-30T01:52:15.713Z,79.74
2022-11-30T01:57:36.696Z,79.50
2022-11-30T02:03:17.628Z,79.75
2022-11-30T02:08:19.533Z,79.42
2022-11-30T02:13:32.551Z,79.52
2022-11-30T02:18:41.410Z,79.57
2022-11-30T02:23:49.436Z,79.73
2022-11-30T02:29:28.732Z,80.04
2022-11-30T02:34:31.811Z,79.90
2022-11-30T02:39:33.674Z,80.13
2022-11-30T02:44:35.385Z,80.50
2022-11-30T02:49:40.642Z,80.18
2022-11-30T02:54:42.598Z,81.05
2022-11-30T02:59:44.254Z,81.36
2022-11-30T03:04:46.216Z,81.17
2022-11-30T03:09:48.097Z,81.09
2022-11-30T03:14:49.961Z,81.67
2022-11-30T03:19:51.776Z,81.75
2022-11-30T03:26:47.278Z,82.00
2022-11-30T03:31:48.998Z,82.40
2022-11-30T03:36:50.814Z,82.33
2022-11-30T03:41:52.600Z,82.45
2022-11-30T03:46:54.273Z,82.78
2022-11-30T03:51:55.987Z,82.68
2022-11-30T03:56:57.621Z,82.95
2022-11-30T04:01:59.285Z,82.82
2022-11-30T04:07:01.055Z,83.14
2022-11-30T04:12:02.767Z,83.03
2022-11-30T04:17:04.658Z,83.21
2022-11-30T04:22:06.251Z,83.60
2022-11-30T04:27:07.906Z,84.24
2022-11-30T04:32:09.560Z,83.96
2022-11-30T04:37:11.192Z,84.39
2022-11-30T04:42:12.828Z,84.80
2022-11-30T04:47:14.624Z,85.02
2022-11-30T04:52:16.332Z,84.81
2022-11-30T04:57:18.014Z,85.17
2022-11-30T05:02:19.658Z,85.27
2022-11-30T05:07:21.369Z,85.66
2022-11-30T05:12:23.637Z,85.57
2022-11-30T05:17:25.415Z,85.76
2022-11-30T05:22:27.078Z,85.31
2022-11-30T05:27:28.858Z,85.22
2022-11-30T05:32:30.497Z,85.08
2022-11-30T05:37:32.178Z,84.93
2022-11-30T05:42:33.800Z,85.05
2022-11-30T05:47:35.611Z,84.02
2022-11-30T05:52:37.241Z,83.85
2022-11-30T05:57:40.234Z,83.52
2022-11-30T06:02:41.996Z,83.58
2022-11-30T06:07:43.778Z,83.49
2022-11-30T06:12:45.891Z,83.86
2022-11-30T06:17:47.545Z,83.53
2022-11-30T06:22:49.137Z,83.67
2022-11-30T06:27:50.854Z,84.10
2022-11-30T06:32:52.534Z,84.65
2022-11-30T06:37:55.105Z,84.65
2022-11-30T06:42:56.830Z,84.77
2022-11-30T06:47:58.607Z,85.07
2022-11-30T06:53:00.317Z,85.48
2022-11-30T06:58:06.869Z,85.67
2022-11-30T07:03:08.645Z,85.14
2022-11-30T07:08:11.436Z,85.60
2022-11-30T07:13:14.935Z,85.75
2022-11-30T07:18:16.570Z,85.65
2022-11-30T07:23:36.510Z,85.25
2022-11-30T07:28:46.548Z,85.43
2022-11-30T07:33:49.493Z,85.51
2022-11-30T07:38:51.616Z,85.29
2022-11-30T07:43:53.437Z,84.81
2022-11-30T07:48:55.086Z,84.86
2022-11-30T07:53:57.286Z,84.57
2022-11-30T07:59:00.694Z,83.71
2022-11-30T08:04:02.345Z,82.39
2022-11-30T08:09:04.408Z,82.25
2022-11-30T08:14:06.082Z,82.71
2022-11-30T08:19:07.761Z,82.41
2022-11-30T08:24:11.657Z,82.39
2022-11-30T08:29:13.480Z,82.21
2022-11-30T08:34:15.137Z,81.67
2022-11-30T08:39:16.768Z,81.81
2022-11-30T08:44:18.382Z,80.63
2022-11-30T08:49:23.065Z,80.93
2022-11-30T08:54:27.617Z,80.31
2022-11-30T08:59:31.455Z,80.27
2022-11-30T09:04:33.062Z,79.64
2022-11-30T09:09:34.724Z,79.43
2022-11-30T09:14:36.516Z,79.43
2022-11-30T09:19:38.456Z,79.17
2022-11-30T09:24:40.756Z,79.04
2022-11-30T09:29:42.790Z,79.07
2022-11-30T09:34:44.534Z,78.68
2022-11-30T09:39:46.290Z,77.52
2022-11-30T09:45:28.886Z,77.27
2022-11-30T09:50:34.348Z,76.64
2022-11-30T09:55:41.576Z,76.75
2022-11-30T10:00:43.276Z,75.93
2022-11-30T10:05:55.808Z,76.30
2022-11-30T10:10:57.382Z,76.09
2022-11-30T10:16:18.211Z,75.57
2022-11-30T10:21:41.425Z,75.33
2022-11-30T10:26:53.754Z,74.63
2022-11-30T10:31:58.422Z,74.67
2022-11-30T10:37:12.180Z,74.75
2022-11-30T10:42:37.905Z,74.63
2022-11-30T10:47:54.003Z,74.65
2022-11-30T10:52:57.898Z,74.19
2022-11-30T10:58:03.683Z,73.53
2022-11-30T11:03:26.162Z,73.64
2022-11-30T11:08:27.787Z,72.36
2022-11-30T11:13:36.727Z,72.63
2022-11-30T11:18:57.609Z,72.30
2022-11-30T11:23:59.410Z,72.26
2022-11-30T11:29:01.238Z,72.49
2022-11-30T11:34:05.024Z,72.17
2022-11-30T11:39:25.660Z,72.79
2022-11-30T11:44:28.141Z,72.70
2022-11-30T11:49:32.838Z,72.74
2022-11-30T11:54:49.804Z,73.63
2022-11-30T12:00:02.639Z,73.90
2022-11-30T12:05:09.808Z,73.32
2022-11-30T12:16:10.541Z,73.57
2022-11-30T12:21:26.198Z,73.83
2022-11-30T12:26:33.887Z,73.42
2022-11-30T12:31:52.520Z,73.64
2022-11-30T12:36:57.820Z,74.72
2022-11-30T12:42:45.474Z,73.96
2022-11-30T12:48:02.463Z,74.55
2022-11-30T12:53:32.407Z,74.34
2022-11-30T12:58:40.022Z,74.11
2022-11-30T13:03:45.824Z,74.13
2022-11-30T13:08:54.048Z,74.03
2022-11-30T13:13:57.665Z,73.82
2022-11-30T13:19:10.858Z,73.22
2022-11-30T13:24:22.702Z,72.07
2022-11-30T13:29:42.720Z,73.35
2022-11-30T13:34:44.444Z,72.45
2022-11-30T13:39:52.291Z,72.55
2022-11-30T13:44:54.305Z,72.37
2022-11-30T13:49:59.099Z,72.78
2022-11-30T13:55:41.009Z,73.10
2022-11-30T14:00:45.889Z,73.22
2022-11-30T14:06:29.123Z,73.25
2022-11-30T14:11:39.930Z,73.50
2022-11-30T14:16:42.194Z,74.05
2022-11-30T14:21:44.742Z,73.51
2022-11-30T14:26:48.651Z,73.49
2022-11-30T14:32:00.540Z,73.57
2022-11-30T14:37:14.003Z,73.17
2022-11-30T14:42:20.606Z,74.23
2022-11-30T14:47:22.210Z,74.88
2022-11-30T14:52:38.722Z,75.09
2022-11-30T14:57:52.630Z,75.19
2022-11-30T15:02:54.862Z,75.70
2022-11-30T15:07:56.843Z,75.31
2022-11-30T15:13:00.366Z,75.48
2022-11-30T15:18:14.252Z,75.01
2022-11-30T15:23:16.256Z,75.14
2022-11-30T15:28:22.641Z,74.76
2022-11-30T15:33:27.200Z,74.67
2022-11-30T15:38:28.877Z,75.15
2022-11-30T15:43:39.568Z,74.98
2022-11-30T15:48:41.336Z,75.16
2022-11-30T15:53:51.279Z,75.42
2022-11-30T15:59:03.809Z,75.13
2022-11-30T16:04:06.078Z,75.40
2022-11-30T16:09:32.491Z,75.60
2022-11-30T16:14:34.343Z,75.49
2022-11-30T16:19:36.089Z,75.43
2022-11-30T16:24:37.805Z,76.17
2022-11-30T16:29:39.579Z,75.90
2022-11-30T16:34:41.231Z,75.53
2022-11-30T16:39:43.229Z,76.14
2022-11-30T16:44:44.874Z,75.93
2022-11-30T16:49:46.853Z,75.57
2022-11-30T16:54:48.710Z,75.52
2022-11-30T16:59:50.290Z,75.54
2022-11-30T17:04:52.029Z,75.95
2022-11-30T17:09:53.678Z,76.11
2022-11-30T17:14:55.356Z,76.25
2022-11-30T17:19:57.116Z,76.07
2022-11-30T17:24:58.985Z,75.96
2022-11-30T17:30:00.756Z,76.21
2022-11-30T17:35:02.373Z,75.93
2022-11-30T17:40:05.008Z,76.00
2022-11-30T17:45:07.110Z,76.15
2022-11-30T17:50:09.208Z,76.04
2022-11-30T17:55:10.841Z,76.35
2022-11-30T18:00:12.811Z,76.43
2022-11-30T18:05:14.451Z,76.98
2022-11-30T18:10:16.614Z,77.73
2022-11-30T18:15:18.311Z,79.15
2022-11-30T18:20:20.037Z,80.39
2022-11-30T18:25:22.343Z,80.80
2022-11-30T18:30:24.026Z,81.41
2022-11-30T18:35:25.753Z,81.83
2022-11-30T18:40:27.355Z,81.91
2022-11-30T18:45:33.551Z,82.52
2022-11-30T18:50:35.298Z,82.30
2022-11-30T18:55:37.743Z,82.73
2022-11-30T19:00:39.423Z,82.52
2022-11-30T19:05:41.576Z,82.34
2022-11-30T19:10:43.468Z,82.54
2022-11-30T19:15:45.133Z,82.62
2022-11-30T19:20:46.798Z,82.61
2022-11-30T19:25:48.544Z,82.67
2022-11-30T19:30:50.225Z,82.13
2022-11-30T19:35:51.882Z,82.43
2022-11-30T19:40:53.546Z,83.28
2022-11-30T19:45:55.173Z,83.48
2022-11-30T19:50:56.824Z,83.36
2022-11-30T19:55:58.478Z,83.56
2022-11-30T20:01:00.665Z,83.26
2022-11-30T20:06:03.361Z,83.70
2022-11-30T20:11:09.832Z,83.91
2022-11-30T20:16:16.602Z,84.12
2022-11-30T20:21:19.399Z,84.91
2022-11-30T20:26:26.129Z,84.76
2022-11-30T20:31:29.170Z,85.12
2022-11-30T20:36:31.075Z,85.41
2022-11-30T20:41:34.053Z,85.86
2022-11-30T20:46:36.193Z,85.91
2022-11-30T20:51:37.988Z,86.36
2022-11-30T20:56:40.271Z,86.65
2022-11-30T21:01:43.230Z,86.82
2022-11-30T21:06:47.744Z,87.43
2022-11-30T21:11:49.734Z,87.55
2022-11-30T21:16:51.407Z,88.42
2022-11-30T21:21:55.246Z,88.10
2022-11-30T21:26:56.886Z,87.90
2022-11-30T21:31:58.611Z,87.69
2022-11-30T21:37:01.616Z,87.50
2022-11-30T21:42:03.380Z,87.55
2022-11-30T21:47:05.099Z,87.23
2022-11-30T21:52:06.798Z,87.41
2022-11-30T21:57:08.446Z,87.33
2022-11-30T22:02:12.016Z,87.32
2022-11-30T22:07:13.690Z,87.74
2022-11-30T22:12:15.494Z,87.83
2022-11-30T22:17:17.235Z,87.61
2022-11-30T22:22:18.938Z,87.54
2022-11-30T22:27:20.553Z,87.99
2022-11-30T22:32:22.232Z,87.82
2022-11-30T22:37:23.910Z,87.95
2022-11-30T22:42:25.570Z,88.50
2022-11-30T22:47:27.276Z,88.67
2022-11-30T22:53:01.085Z,89.35
2022-11-30T22:57:50.659Z,89.42
2022-11-30T23:02:52.386Z,89.42
2022-11-30T23:07:54.160Z,89.23
2022-11-30T23:13:00.104Z,89.17
2022-11-30T23:18:01.974Z,89.39
2022-11-30T23:23:03.729Z,89.40
2022-11-30T23:28:05.526Z,89.19
2022-11-30T23:33:07.178Z,89.45
2022-11-30T23:38:08.887Z,89.85
2022-11-30T23:43:10.500Z,89.54
2022-11-30T23:48:12.379Z,89.64
2022-11-30T23:53:14.121Z,89.52
2022-11-30T23:58:15.981Z,89.85
